My Meet Scores
Michaela Moir, Gym Kinetics Gymnastics - MyMeetScores.com
Top100 | Top Teams | Upcoming Meets | Completed Meets | Latest | Add Scores | Help| Support | Bookmark and Share

Michaela Moir, Gym Kinetics Gymnastics
Personal Bests
LevelVault BarsBeamFloorAA
39.5759.450 9.5509.40037.225
49.3759.175 9.2509.30036.425
59.2259.325 9.6009.37536.775
69.3759.350 9.5259.52537.175
Meet Scores
Date Meet Team Session Level Division Vault Bars Beam Floor AA
2017-03-23 2017 Illinois Level 6, 7 State Championship Gym Kinetics Gymnastics 10 6 Sr A 9.100 18T 8.950 8T 9.525 5T 9.275 14T 36.850 8
2017-02-24 Kinetic Classic Gym Kinetics Gymnastics 9 6 All Ages 8.900 28T 8.975 29 9.425 9T 9.500 6T 36.800 13T
2017-02-09 Hal's Harley-Davidson Invite Gym Kinetics Gymnastics S01 6 12 yrs. 9.375 2 9.225 2 9.150 6 9.425 1T 37.175 2
2017-01-13 St Jude Benefit Meet Gym Kinetics Gymnastics 2B 6 Sr A 9.100 2 9.350 4 9.050 9T 9.525 5 37.025 3T
2016-12-16 2016 Aspire Classic Gym Kinetics Gymnastics 3 6 Older 9.000 9 8.850 10 8.900 8T 9.500 1 36.250 9
2016-04-22 2016 Illinois Level 5 And Xcel State Championships Gym Kinetics Gymnastics 3 5 Jr D 9.200 9T 9.325 4 9.600 1 8.650 21 36.775 4T
2016-02-20 Big Classic Gym Kinetics Gymnastics 11B 5 Child B 8.850 12 8.775 9 9.200 7 9.200 3T 36.025 7
2016-01-22 2016 Honkytonk Classic Gym Kinetics Gymnastics 04 5 Jr 9.200 1 9.300 2 8.800 2 9.150 1T 36.450 1
2016-01-15 2016 Bravo Classic Gym Kinetics Gymnastics 1A 5 11+yrs 9.225 2 7.800 19 9.300 1 9.250 3 35.575 6
2015-12-18 2015 Aspire Classic Gym Kinetics Gymnastics 12 5 Older 8.975 6T 8.750 10 9.325 1 9.375 1 36.425 2
2015-12-04 2015 Ultimate Wish Classic Gym Kinetics Gymnastics 9A 5 All 9.000 13 9.150 8 9.000 19 8.725 34 35.875 7
2015-03-19 2015 Illinois Level 4 State Championship Gym Kinetics Gymnastics All 4 Jr.C 9.375 3 8.500 18 9.250 10 9.300 6 36.425 8
2015-02-27 Gasparilla Classic Gym Kinetics Gymnastics D6 4 L4 D6 grp4 7.700 11 9.175 4 8.675 7 9.175 2T 34.725 6
2015-02-21 BIG Classic Gym Kinetics Gymnastics 5A 4 Child C 8.600 10T 9.050 9T 9.075 11T 9.200 1T 35.925 6
2015-01-23 King Arthur Invitational Gym Kinetics Gymnastics 5 4 SrA 8.525 12 8.700 11 8.900 13 9.200 5 35.325 10
2015-01-09 Legacy Elite Winter Classic 2015 Flipstar Gymnastics Academy 4B 4 Jr A 8.700 2 9.050 6 9.200 3T 9.175 3 36.125 3
2014-03-07 Illinois Level 3 State Meet Gym Kinetics Gymnastics 2 3 Jr D 9.575 4 9.250 6 9.300 5 9.100 13 37.225 6
2014-02-15 BIG Dream Classic 2014 Gym Kinetics Gymnastics 6A 3 Junior A 8.250 12 9.450 4 9.550 2 9.400 2 36.650 6
2014-01-17 2014 Bravo Classic Gym Kinetics Gymnastics 6B 3 9+yrs 9.025 12T 9.450 1 9.150 10 8.700 6T 36.325 5
2013-12-19 2013 Hawaiian Pineapple Classic Gym Kinetics Gymnastics A11 3 9 9.050 6T 9.400 1 9.250 2 9.200 3 36.900 1

www.lazysuits.com